sensor_id;sensor_type;location;lat;lon;timestamp;temperature;humidity
12872;DHT22;6504;53.766;9.626;2024-03-29T00:00:08;7.30;99.90
12872;DHT22;6504;53.766;9.626;2024-03-29T00:02:35;7.30;99.90
12872;DHT22;6504;53.766;9.626;2024-03-29T00:05:02;7.30;99.90
12872;DHT22;6504;53.766;9.626;2024-03-29T00:07:28;7.20;99.90
12872;DHT22;6504;53.766;9.626;2024-03-29T00:09:54;7.20;99.90
12872;DHT22;6504;53.766;9.626;2024-03-29T00:12:20;7.20;99.90
12872;DHT22;6504;53.766;9.626;2024-03-29T00:14:47;7.20;99.90
12872;DHT22;6504;53.766;9.626;2024-03-29T00:17:13;7.20;99.90
12872;DHT22;6504;53.766;9.626;2024-03-29T00:19:40;7.20;99.90
12872;DHT22;6504;53.766;9.626;2024-03-29T00:22:06;7.10;99.90
12872;DHT22;6504;53.766;9.626;2024-03-29T00:24:32;7.10;99.90
12872;DHT22;6504;53.766;9.626;2024-03-29T00:26:58;7.10;99.90
12872;DHT22;6504;53.766;9.626;2024-03-29T00:29:25;7.10;99.90
12872;DHT22;6504;53.766;9.626;2024-03-29T00:31:51;7.10;99.90
12872;DHT22;6504;53.766;9.626;2024-03-29T00:34:17;7.00;99.90
12872;DHT22;6504;53.766;9.626;2024-03-29T00:36:45;7.00;99.90
12872;DHT22;6504;53.766;9.626;2024-03-29T00:39:12;7.00;99.90
12872;DHT22;6504;53.766;9.626;2024-03-29T00:41:38;7.00;99.90
12872;DHT22;6504;53.766;9.626;2024-03-29T00:44:04;7.00;99.90
12872;DHT22;6504;53.766;9.626;2024-03-29T00:46:30;6.90;99.90
12872;DHT22;6504;53.766;9.626;2024-03-29T00:48:56;6.90;99.90
12872;DHT22;6504;53.766;9.626;2024-03-29T00:51:22;6.90;99.90
12872;DHT22;6504;53.766;9.626;2024-03-29T00:53:50;6.90;99.90
12872;DHT22;6504;53.766;9.626;2024-03-29T00:56:16;6.90;99.90
12872;DHT22;6504;53.766;9.626;2024-03-29T00:58:42;6.90;99.90
12872;DHT22;6504;53.766;9.626;2024-03-29T01:01:08;6.80;99.90
12872;DHT22;6504;53.766;9.626;2024-03-29T01:03:34;6.90;99.90
12872;DHT22;6504;53.766;9.626;2024-03-29T01:06:00;6.80;99.90
12872;DHT22;6504;53.766;9.626;2024-03-29T01:08:26;6.80;99.90
12872;DHT22;6504;53.766;9.626;2024-03-29T01:10:54;6.80;99.90
12872;DHT22;6504;53.766;9.626;2024-03-29T01:13:20;6.80;99.90
12872;DHT22;6504;53.766;9.626;2024-03-29T01:15:46;6.80;99.90
12872;DHT22;6504;53.766;9.626;2024-03-29T01:18:12;6.70;99.90
12872;DHT22;6504;53.766;9.626;2024-03-29T01:20:38;6.70;99.90
12872;DHT22;6504;53.766;9.626;2024-03-29T01:23:04;6.70;99.90
12872;DHT22;6504;53.766;9.626;2024-03-29T01:25:30;6.70;99.90
12872;DHT22;6504;53.766;9.626;2024-03-29T01:27:58;6.70;99.90
12872;DHT22;6504;53.766;9.626;2024-03-29T01:30:24;6.70;99.90
12872;DHT22;6504;53.766;9.626;2024-03-29T01:32:50;6.60;99.90
12872;DHT22;6504;53.766;9.626;2024-03-29T01:35:16;6.60;99.90
12872;DHT22;6504;53.766;9.626;2024-03-29T01:37:42;6.60;99.90
12872;DHT22;6504;53.766;9.626;2024-03-29T01:40:08;6.60;99.90
12872;DHT22;6504;53.766;9.626;2024-03-29T01:42:35;6.60;99.90
12872;DHT22;6504;53.766;9.626;2024-03-29T01:45:06;6.50;99.90
12872;DHT22;6504;53.766;9.626;2024-03-29T01:47:34;6.50;99.90
12872;DHT22;6504;53.766;9.626;2024-03-29T01:50:01;6.50;99.90
12872;DHT22;6504;53.766;9.626;2024-03-29T01:52:29;6.50;99.90
12872;DHT22;6504;53.766;9.626;2024-03-29T01:54:56;6.50;99.90
12872;DHT22;6504;53.766;9.626;2024-03-29T01:57:24;6.50;99.90
12872;DHT22;6504;53.766;9.626;2024-03-29T01:59:51;6.40;99.90
12872;DHT22;6504;53.766;9.626;2024-03-29T02:02:19;6.40;99.90
12872;DHT22;6504;53.766;9.626;2024-03-29T02:04:46;6.40;99.90
12872;DHT22;6504;53.766;9.626;2024-03-29T02:07:13;6.40;99.90
12872;DHT22;6504;53.766;9.626;2024-03-29T02:09:41;6.40;99.90
12872;DHT22;6504;53.766;9.626;2024-03-29T02:12:08;6.40;99.90
12872;DHT22;6504;53.766;9.626;2024-03-29T02:14:35;6.40;99.90
12872;DHT22;6504;53.766;9.626;2024-03-29T02:17:01;6.40;99.90
12872;DHT22;6504;53.766;9.626;2024-03-29T02:19:29;6.40;99.90
12872;DHT22;6504;53.766;9.626;2024-03-29T02:21:59;6.30;99.90
12872;DHT22;6504;53.766;9.626;2024-03-29T02:24:28;6.30;99.90
12872;DHT22;6504;53.766;9.626;2024-03-29T02:26:56;6.30;99.90
12872;DHT22;6504;53.766;9.626;2024-03-29T02:29:23;6.30;99.90
12872;DHT22;6504;53.766;9.626;2024-03-29T02:31:50;6.30;99.90
12872;DHT22;6504;53.766;9.626;2024-03-29T02:34:17;6.30;99.90
12872;DHT22;6504;53.766;9.626;2024-03-29T02:36:44;6.30;99.90
12872;DHT22;6504;53.766;9.626;2024-03-29T02:39:11;6.30;99.90
12872;DHT22;6504;53.766;9.626;2024-03-29T02:41:40;6.30;99.90
12872;DHT22;6504;53.766;9.626;2024-03-29T02:44:07;6.30;99.90
12872;DHT22;6504;53.766;9.626;2024-03-29T02:46:34;6.30;99.90
12872;DHT22;6504;53.766;9.626;2024-03-29T02:49:01;6.20;99.90
12872;DHT22;6504;53.766;9.626;2024-03-29T02:51:27;6.20;99.90
12872;DHT22;6504;53.766;9.626;2024-03-29T02:53:54;6.20;99.90
12872;DHT22;6504;53.766;9.626;2024-03-29T02:56:20;6.20;99.90
12872;DHT22;6504;53.766;9.626;2024-03-29T02:58:51;6.20;99.90
12872;DHT22;6504;53.766;9.626;2024-03-29T03:01:17;6.20;99.90
12872;DHT22;6504;53.766;9.626;2024-03-29T03:03:44;6.20;99.90
12872;DHT22;6504;53.766;9.626;2024-03-29T03:06:10;6.20;99.90
12872;DHT22;6504;53.766;9.626;2024-03-29T03:08:37;6.20;99.90
12872;DHT22;6504;53.766;9.626;2024-03-29T03:11:22;6.10;99.90
12872;DHT22;6504;53.766;9.626;2024-03-29T03:13:50;6.10;99.90
12872;DHT22;6504;53.766;9.626;2024-03-29T03:16:18;6.10;99.90
12872;DHT22;6504;53.766;9.626;2024-03-29T03:18:44;6.10;99.90
12872;DHT22;6504;53.766;9.626;2024-03-29T03:21:11;6.10;99.90
12872;DHT22;6504;53.766;9.626;2024-03-29T03:23:37;6.10;99.90
12872;DHT22;6504;53.766;9.626;2024-03-29T03:26:04;6.10;99.90
12872;DHT22;6504;53.766;9.626;2024-03-29T03:28:30;6.10;99.90
12872;DHT22;6504;53.766;9.626;2024-03-29T03:30:58;6.10;99.90
12872;DHT22;6504;53.766;9.626;2024-03-29T03:33:24;6.10;99.90
12872;DHT22;6504;53.766;9.626;2024-03-29T03:35:52;6.10;99.90
12872;DHT22;6504;53.766;9.626;2024-03-29T03:38:18;6.10;99.90
12872;DHT22;6504;53.766;9.626;2024-03-29T03:40:45;6.10;99.90
12872;DHT22;6504;53.766;9.626;2024-03-29T03:43:11;6.10;99.90
12872;DHT22;6504;53.766;9.626;2024-03-29T03:45:39;6.10;99.90
12872;DHT22;6504;53.766;9.626;2024-03-29T03:48:09;6.10;99.90
12872;DHT22;6504;53.766;9.626;2024-03-29T03:50:37;6.10;99.90
12872;DHT22;6504;53.766;9.626;2024-03-29T03:53:03;6.10;99.90
12872;DHT22;6504;53.766;9.626;2024-03-29T03:55:31;6.10;99.90
12872;DHT22;6504;53.766;9.626;2024-03-29T03:57:57;6.20;99.90
12872;DHT22;6504;53.766;9.626;2024-03-29T04:00:24;6.10;99.90
12872;DHT22;6504;53.766;9.626;2024-03-29T04:02:50;6.10;99.90
12872;DHT22;6504;53.766;9.626;2024-03-29T04:05:19;6.10;99.90
12872;DHT22;6504;53.766;9.626;2024-03-29T04:07:46;6.10;99.90
12872;DHT22;6504;53.766;9.626;2024-03-29T04:10:14;6.10;99.90
12872;DHT22;6504;53.766;9.626;2024-03-29T04:12:41;6.10;99.90
12872;DHT22;6504;53.766;9.626;2024-03-29T04:15:08;6.10;99.90
12872;DHT22;6504;53.766;9.626;2024-03-29T04:17:34;6.10;99.90
12872;DHT22;6504;53.766;9.626;2024-03-29T04:20:02;6.10;99.90
12872;DHT22;6504;53.766;9.626;2024-03-29T04:22:30;6.10;99.90
12872;DHT22;6504;53.766;9.626;2024-03-29T04:24:58;6.10;99.90
12872;DHT22;6504;53.766;9.626;2024-03-29T04:27:25;6.10;99.90
12872;DHT22;6504;53.766;9.626;2024-03-29T04:29:52;6.10;99.90
12872;DHT22;6504;53.766;9.626;2024-03-29T04:32:19;6.10;99.90
12872;DHT22;6504;53.766;9.626;2024-03-29T04:34:49;6.20;99.90
12872;DHT22;6504;53.766;9.626;2024-03-29T04:37:15;6.10;99.90
12872;DHT22;6504;53.766;9.626;2024-03-29T04:39:45;6.10;99.90
12872;DHT22;6504;53.766;9.626;2024-03-29T04:42:12;6.10;99.90
12872;DHT22;6504;53.766;9.626;2024-03-29T04:44:40;6.10;99.90
12872;DHT22;6504;53.766;9.626;2024-03-29T04:47:07;6.10;99.90
12872;DHT22;6504;53.766;9.626;2024-03-29T04:49:35;6.10;99.90
12872;DHT22;6504;53.766;9.626;2024-03-29T04:52:03;6.10;99.90
12872;DHT22;6504;53.766;9.626;2024-03-29T04:54:31;6.10;99.90
12872;DHT22;6504;53.766;9.626;2024-03-29T04:56:59;6.10;99.90
12872;DHT22;6504;53.766;9.626;2024-03-29T04:59:27;6.10;99.90
12872;DHT22;6504;53.766;9.626;2024-03-29T05:01:54;6.10;99.90
12872;DHT22;6504;53.766;9.626;2024-03-29T05:04:22;6.10;99.90
12872;DHT22;6504;53.766;9.626;2024-03-29T05:06:52;6.10;99.90
12872;DHT22;6504;53.766;9.626;2024-03-29T05:09:19;6.10;99.90
12872;DHT22;6504;53.766;9.626;2024-03-29T05:11:47;6.10;99.90
12872;DHT22;6504;53.766;9.626;2024-03-29T05:14:16;6.10;99.90
12872;DHT22;6504;53.766;9.626;2024-03-29T05:16:44;6.10;99.90
12872;DHT22;6504;53.766;9.626;2024-03-29T05:19:11;6.10;99.90
12872;DHT22;6504;53.766;9.626;2024-03-29T05:21:38;6.20;99.90
12872;DHT22;6504;53.766;9.626;2024-03-29T05:24:06;6.20;99.90
12872;DHT22;6504;53.766;9.626;2024-03-29T05:26:33;6.20;99.90
12872;DHT22;6504;53.766;9.626;2024-03-29T05:29:00;6.20;99.90
12872;DHT22;6504;53.766;9.626;2024-03-29T05:31:31;6.20;99.90
12872;DHT22;6504;53.766;9.626;2024-03-29T05:33:58;6.20;99.90
12872;DHT22;6504;53.766;9.626;2024-03-29T05:36:26;6.20;99.90
12872;DHT22;6504;53.766;9.626;2024-03-29T05:38:53;6.20;99.90
12872;DHT22;6504;53.766;9.626;2024-03-29T05:41:21;6.20;99.90
12872;DHT22;6504;53.766;9.626;2024-03-29T05:43:49;6.20;99.90
12872;DHT22;6504;53.766;9.626;2024-03-29T05:46:16;6.30;99.90
12872;DHT22;6504;53.766;9.626;2024-03-29T05:48:45;6.30;99.90
12872;DHT22;6504;53.766;9.626;2024-03-29T05:51:12;6.30;99.90
12872;DHT22;6504;53.766;9.626;2024-03-29T05:53:39;6.30;99.90
12872;DHT22;6504;53.766;9.626;2024-03-29T05:56:06;6.30;99.90
12872;DHT22;6504;53.766;9.626;2024-03-29T05:58:34;6.30;99.90
12872;DHT22;6504;53.766;9.626;2024-03-29T06:01:01;6.30;99.90
12872;DHT22;6504;53.766;9.626;2024-03-29T06:03:28;6.40;99.90
12872;DHT22;6504;53.766;9.626;2024-03-29T06:05:56;6.40;99.90
12872;DHT22;6504;53.766;9.626;2024-03-29T06:08:24;6.40;99.90
12872;DHT22;6504;53.766;9.626;2024-03-29T06:10:53;6.40;99.90
12872;DHT22;6504;53.766;9.626;2024-03-29T06:13:20;6.40;99.90
12872;DHT22;6504;53.766;9.626;2024-03-29T06:16:15;6.40;99.90
12872;DHT22;6504;53.766;9.626;2024-03-29T06:18:59;6.40;99.90
12872;DHT22;6504;53.766;9.626;2024-03-29T06:21:28;6.40;99.90
12872;DHT22;6504;53.766;9.626;2024-03-29T06:23:56;6.40;99.90
12872;DHT22;6504;53.766;9.626;2024-03-29T06:26:23;6.50;99.90
12872;DHT22;6504;53.766;9.626;2024-03-29T06:28:50;6.50;99.90
12872;DHT22;6504;53.766;9.626;2024-03-29T06:31:17;6.50;99.90
12872;DHT22;6504;53.766;9.626;2024-03-29T06:33:44;6.50;99.90
12872;DHT22;6504;53.766;9.626;2024-03-29T06:36:11;6.50;99.90
12872;DHT22;6504;53.766;9.626;2024-03-29T06:38:40;6.50;99.90
12872;DHT22;6504;53.766;9.626;2024-03-29T06:41:07;6.50;99.90
12872;DHT22;6504;53.766;9.626;2024-03-29T06:43:34;6.50;99.90
12872;DHT22;6504;53.766;9.626;2024-03-29T06:46:01;6.50;99.90
12872;DHT22;6504;53.766;9.626;2024-03-29T06:48:29;6.60;99.90
12872;DHT22;6504;53.766;9.626;2024-03-29T06:50:57;6.60;99.90
12872;DHT22;6504;53.766;9.626;2024-03-29T06:53:24;6.60;99.90
12872;DHT22;6504;53.766;9.626;2024-03-29T06:55:54;6.60;99.90
12872;DHT22;6504;53.766;9.626;2024-03-29T06:58:21;6.60;99.90
12872;DHT22;6504;53.766;9.626;2024-03-29T07:00:48;6.60;99.90
12872;DHT22;6504;53.766;9.626;2024-03-29T07:03:16;6.70;99.90
12872;DHT22;6504;53.766;9.626;2024-03-29T07:05:44;6.70;99.90
12872;DHT22;6504;53.766;9.626;2024-03-29T07:08:12;6.70;99.90
12872;DHT22;6504;53.766;9.626;2024-03-29T07:10:39;6.80;99.90
12872;DHT22;6504;53.766;9.626;2024-03-29T07:13:08;6.80;99.90
12872;DHT22;6504;53.766;9.626;2024-03-29T07:15:35;6.80;99.90
12872;DHT22;6504;53.766;9.626;2024-03-29T07:18:02;6.80;99.90
12872;DHT22;6504;53.766;9.626;2024-03-29T07:20:29;6.80;99.90
12872;DHT22;6504;53.766;9.626;2024-03-29T07:22:57;6.90;99.90
12872;DHT22;6504;53.766;9.626;2024-03-29T07:25:24;6.90;99.90
12872;DHT22;6504;53.766;9.626;2024-03-29T07:27:52;6.90;99.90
12872;DHT22;6504;53.766;9.626;2024-03-29T07:30:20;7.00;99.90
12872;DHT22;6504;53.766;9.626;2024-03-29T07:32:48;7.00;99.90
12872;DHT22;6504;53.766;9.626;2024-03-29T07:35:15;7.10;99.90
12872;DHT22;6504;53.766;9.626;2024-03-29T07:37:44;7.10;99.90
12872;DHT22;6504;53.766;9.626;2024-03-29T07:40:13;7.10;99.90
12872;DHT22;6504;53.766;9.626;2024-03-29T07:42:40;7.20;99.90
12872;DHT22;6504;53.766;9.626;2024-03-29T07:45:08;7.20;99.90
12872;DHT22;6504;53.766;9.626;2024-03-29T07:47:37;7.30;99.90
12872;DHT22;6504;53.766;9.626;2024-03-29T07:50:04;7.30;99.90
12872;DHT22;6504;53.766;9.626;2024-03-29T07:52:32;7.30;99.90
12872;DHT22;6504;53.766;9.626;2024-03-29T07:54:59;7.40;99.90
12872;DHT22;6504;53.766;9.626;2024-03-29T07:57:26;7.40;99.90
12872;DHT22;6504;53.766;9.626;2024-03-29T07:59:53;7.40;99.90
12872;DHT22;6504;53.766;9.626;2024-03-29T08:02:20;7.50;99.90
12872;DHT22;6504;53.766;9.626;2024-03-29T08:04:52;7.50;99.90
12872;DHT22;6504;53.766;9.626;2024-03-29T08:07:19;7.50;99.90
12872;DHT22;6504;53.766;9.626;2024-03-29T08:09:46;7.60;99.90
12872;DHT22;6504;53.766;9.626;2024-03-29T08:12:13;7.60;99.90
12872;DHT22;6504;53.766;9.626;2024-03-29T08:14:41;7.60;99.90
12872;DHT22;6504;53.766;9.626;2024-03-29T08:17:08;7.70;99.90
12872;DHT22;6504;53.766;9.626;2024-03-29T08:19:35;7.70;99.90
12872;DHT22;6504;53.766;9.626;2024-03-29T08:22:04;7.80;99.90
12872;DHT22;6504;53.766;9.626;2024-03-29T08:24:31;7.80;99.90
12872;DHT22;6504;53.766;9.626;2024-03-29T08:26:58;7.80;99.90
12872;DHT22;6504;53.766;9.626;2024-03-29T08:29:27;7.90;99.90
12872;DHT22;6504;53.766;9.626;2024-03-29T08:31:55;7.90;99.90
12872;DHT22;6504;53.766;9.626;2024-03-29T08:34:22;8.00;99.90
12872;DHT22;6504;53.766;9.626;2024-03-29T08:36:50;8.00;99.90
12872;DHT22;6504;53.766;9.626;2024-03-29T08:39:18;8.10;99.90
12872;DHT22;6504;53.766;9.626;2024-03-29T08:41:45;8.10;99.90
12872;DHT22;6504;53.766;9.626;2024-03-29T08:44:12;8.20;99.90
12872;DHT22;6504;53.766;9.626;2024-03-29T08:46:39;8.20;99.90
12872;DHT22;6504;53.766;9.626;2024-03-29T08:49:06;8.20;99.90
12872;DHT22;6504;53.766;9.626;2024-03-29T08:51:33;8.30;99.90
12872;DHT22;6504;53.766;9.626;2024-03-29T08:54:00;8.30;99.90
12872;DHT22;6504;53.766;9.626;2024-03-29T08:56:32;8.40;99.90
12872;DHT22;6504;53.766;9.626;2024-03-29T08:59:02;8.40;99.90
12872;DHT22;6504;53.766;9.626;2024-03-29T09:01:33;8.40;99.90
12872;DHT22;6504;53.766;9.626;2024-03-29T09:04:00;8.50;99.90
12872;DHT22;6504;53.766;9.626;2024-03-29T09:06:27;8.50;99.90
12872;DHT22;6504;53.766;9.626;2024-03-29T09:08:54;8.50;99.90
12872;DHT22;6504;53.766;9.626;2024-03-29T09:11:21;8.50;99.90
12872;DHT22;6504;53.766;9.626;2024-03-29T09:13:49;8.50;99.90
12872;DHT22;6504;53.766;9.626;2024-03-29T09:16:16;8.50;99.90
12872;DHT22;6504;53.766;9.626;2024-03-29T09:18:43;8.50;99.90
12872;DHT22;6504;53.766;9.626;2024-03-29T09:21:10;8.50;99.90
12872;DHT22;6504;53.766;9.626;2024-03-29T09:23:37;8.50;99.90
12872;DHT22;6504;53.766;9.626;2024-03-29T09:26:07;8.50;99.90
12872;DHT22;6504;53.766;9.626;2024-03-29T09:28:34;8.60;99.90
12872;DHT22;6504;53.766;9.626;2024-03-29T09:31:04;8.60;99.90
12872;DHT22;6504;53.766;9.626;2024-03-29T09:33:31;8.60;99.90
12872;DHT22;6504;53.766;9.626;2024-03-29T09:35:58;8.60;99.90
12872;DHT22;6504;53.766;9.626;2024-03-29T09:38:25;8.60;99.90
12872;DHT22;6504;53.766;9.626;2024-03-29T09:40:56;8.70;99.90
12872;DHT22;6504;53.766;9.626;2024-03-29T09:43:26;8.70;99.90
12872;DHT22;6504;53.766;9.626;2024-03-29T09:45:54;8.70;99.90
12872;DHT22;6504;53.766;9.626;2024-03-29T09:48:23;8.80;99.90
12872;DHT22;6504;53.766;9.626;2024-03-29T09:50:53;8.80;99.90
12872;DHT22;6504;53.766;9.626;2024-03-29T09:53:21;8.90;99.90
12872;DHT22;6504;53.766;9.626;2024-03-29T09:55:50;8.90;99.90
12872;DHT22;6504;53.766;9.626;2024-03-29T09:58:18;8.90;99.90
12872;DHT22;6504;53.766;9.626;2024-03-29T10:00:45;9.00;99.90
12872;DHT22;6504;53.766;9.626;2024-03-29T10:03:12;9.00;99.90
12872;DHT22;6504;53.766;9.626;2024-03-29T10:05:41;9.10;99.90
12872;DHT22;6504;53.766;9.626;2024-03-29T10:08:10;9.10;99.90
12872;DHT22;6504;53.766;9.626;2024-03-29T10:10:37;9.10;99.90
12872;DHT22;6504;53.766;9.626;2024-03-29T10:13:04;9.20;99.90
12872;DHT22;6504;53.766;9.626;2024-03-29T10:15:31;9.20;99.90
12872;DHT22;6504;53.766;9.626;2024-03-29T10:18:03;9.20;99.90
12872;DHT22;6504;53.766;9.626;2024-03-29T10:20:30;9.20;99.90
12872;DHT22;6504;53.766;9.626;2024-03-29T10:22:59;9.20;99.90
12872;DHT22;6504;53.766;9.626;2024-03-29T10:25:32;9.20;99.90
12872;DHT22;6504;53.766;9.626;2024-03-29T10:28:00;9.20;99.90
12872;DHT22;6504;53.766;9.626;2024-03-29T10:30:28;9.20;99.90
12872;DHT22;6504;53.766;9.626;2024-03-29T10:32:56;9.20;99.90
12872;DHT22;6504;53.766;9.626;2024-03-29T10:35:25;9.30;99.90
12872;DHT22;6504;53.766;9.626;2024-03-29T10:37:52;9.30;99.90
12872;DHT22;6504;53.766;9.626;2024-03-29T10:40:21;9.30;99.90
12872;DHT22;6504;53.766;9.626;2024-03-29T10:42:50;9.30;99.90
12872;DHT22;6504;53.766;9.626;2024-03-29T10:45:20;9.30;99.90
12872;DHT22;6504;53.766;9.626;2024-03-29T10:47:48;9.30;99.90
12872;DHT22;6504;53.766;9.626;2024-03-29T10:50:17;9.30;99.90
12872;DHT22;6504;53.766;9.626;2024-03-29T10:52:48;9.30;99.90
12872;DHT22;6504;53.766;9.626;2024-03-29T10:55:15;9.40;99.90
12872;DHT22;6504;53.766;9.626;2024-03-29T10:57:45;9.40;99.90
12872;DHT22;6504;53.766;9.626;2024-03-29T11:00:15;9.40;99.90
12872;DHT22;6504;53.766;9.626;2024-03-29T11:02:48;9.50;99.90
12872;DHT22;6504;53.766;9.626;2024-03-29T11:05:17;9.50;99.90
12872;DHT22;6504;53.766;9.626;2024-03-29T11:07:45;9.50;99.90
12872;DHT22;6504;53.766;9.626;2024-03-29T11:10:24;9.60;99.90
12872;DHT22;6504;53.766;9.626;2024-03-29T11:12:59;9.60;99.90
12872;DHT22;6504;53.766;9.626;2024-03-29T11:15:30;9.70;99.90
12872;DHT22;6504;53.766;9.626;2024-03-29T11:17:57;9.80;99.90
12872;DHT22;6504;53.766;9.626;2024-03-29T11:20:26;9.90;99.90
12872;DHT22;6504;53.766;9.626;2024-03-29T11:23:05;9.90;99.90
12872;DHT22;6504;53.766;9.626;2024-03-29T11:25:40;9.90;99.90
12872;DHT22;6504;53.766;9.626;2024-03-29T11:28:09;10.00;99.90
12872;DHT22;6504;53.766;9.626;2024-03-29T11:30:46;10.00;99.90
12872;DHT22;6504;53.766;9.626;2024-03-29T11:33:29;10.00;99.90
12872;DHT22;6504;53.766;9.626;2024-03-29T11:35:57;10.10;99.90
12872;DHT22;6504;53.766;9.626;2024-03-29T11:38:34;10.10;99.90
12872;DHT22;6504;53.766;9.626;2024-03-29T11:41:02;10.10;99.90
12872;DHT22;6504;53.766;9.626;2024-03-29T11:43:31;10.10;99.90
12872;DHT22;6504;53.766;9.626;2024-03-29T11:45:59;10.20;99.90
12872;DHT22;6504;53.766;9.626;2024-03-29T11:48:28;10.20;99.90
12872;DHT22;6504;53.766;9.626;2024-03-29T11:50:57;10.20;99.90
12872;DHT22;6504;53.766;9.626;2024-03-29T11:53:25;10.20;99.90
12872;DHT22;6504;53.766;9.626;2024-03-29T11:55:53;10.20;99.90
12872;DHT22;6504;53.766;9.626;2024-03-29T11:58:21;10.20;99.90
12872;DHT22;6504;53.766;9.626;2024-03-29T12:00:50;10.30;99.90
12872;DHT22;6504;53.766;9.626;2024-03-29T12:03:19;10.30;99.90
12872;DHT22;6504;53.766;9.626;2024-03-29T12:05:48;10.40;99.90
12872;DHT22;6504;53.766;9.626;2024-03-29T12:08:16;10.50;99.90
12872;DHT22;6504;53.766;9.626;2024-03-29T12:10:44;10.50;99.90
12872;DHT22;6504;53.766;9.626;2024-03-29T12:13:11;10.60;99.90
12872;DHT22;6504;53.766;9.626;2024-03-29T12:15:40;10.70;99.90
12872;DHT22;6504;53.766;9.626;2024-03-29T12:18:09;10.70;99.90
12872;DHT22;6504;53.766;9.626;2024-03-29T12:20:37;10.90;99.90
12872;DHT22;6504;53.766;9.626;2024-03-29T12:23:06;11.00;99.90
12872;DHT22;6504;53.766;9.626;2024-03-29T12:25:36;11.20;99.90
12872;DHT22;6504;53.766;9.626;2024-03-29T12:28:04;11.30;99.90
12872;DHT22;6504;53.766;9.626;2024-03-29T12:30:32;11.40;99.90
12872;DHT22;6504;53.766;9.626;2024-03-29T12:33:00;11.50;99.90
12872;DHT22;6504;53.766;9.626;2024-03-29T12:35:29;11.70;99.90
12872;DHT22;6504;53.766;9.626;2024-03-29T12:37:58;11.70;99.90
12872;DHT22;6504;53.766;9.626;2024-03-29T12:40:26;11.80;99.90
12872;DHT22;6504;53.766;9.626;2024-03-29T12:42:56;11.90;99.90
12872;DHT22;6504;53.766;9.626;2024-03-29T12:45:24;11.90;99.90
12872;DHT22;6504;53.766;9.626;2024-03-29T12:47:52;12.00;99.90
12872;DHT22;6504;53.766;9.626;2024-03-29T12:50:25;12.00;99.90
12872;DHT22;6504;53.766;9.626;2024-03-29T12:52:56;12.10;99.90
12872;DHT22;6504;53.766;9.626;2024-03-29T12:55:25;12.20;99.90
12872;DHT22;6504;53.766;9.626;2024-03-29T12:57:54;12.30;99.90
12872;DHT22;6504;53.766;9.626;2024-03-29T13:00:21;12.40;99.90
12872;DHT22;6504;53.766;9.626;2024-03-29T13:02:48;12.60;99.90
12872;DHT22;6504;53.766;9.626;2024-03-29T13:05:16;12.60;99.90
12872;DHT22;6504;53.766;9.626;2024-03-29T13:07:43;12.70;99.90
12872;DHT22;6504;53.766;9.626;2024-03-29T13:10:11;12.70;99.90
12872;DHT22;6504;53.766;9.626;2024-03-29T13:12:41;12.80;99.90
12872;DHT22;6504;53.766;9.626;2024-03-29T13:15:17;12.90;99.90
12872;DHT22;6504;53.766;9.626;2024-03-29T13:17:45;12.90;99.90
12872;DHT22;6504;53.766;9.626;2024-03-29T13:20:12;13.00;99.90
12872;DHT22;6504;53.766;9.626;2024-03-29T13:22:41;13.10;99.90
12872;DHT22;6504;53.766;9.626;2024-03-29T13:25:12;13.20;99.90
12872;DHT22;6504;53.766;9.626;2024-03-29T13:27:40;13.20;99.90
12872;DHT22;6504;53.766;9.626;2024-03-29T13:30:08;13.20;99.90
12872;DHT22;6504;53.766;9.626;2024-03-29T13:32:36;13.30;99.90
12872;DHT22;6504;53.766;9.626;2024-03-29T13:35:03;13.30;99.90
12872;DHT22;6504;53.766;9.626;2024-03-29T13:37:31;13.30;99.90
12872;DHT22;6504;53.766;9.626;2024-03-29T13:39:59;13.30;99.90
12872;DHT22;6504;53.766;9.626;2024-03-29T13:42:27;13.30;99.90
12872;DHT22;6504;53.766;9.626;2024-03-29T13:44:54;13.30;99.90
12872;DHT22;6504;53.766;9.626;2024-03-29T13:47:21;13.30;99.90
12872;DHT22;6504;53.766;9.626;2024-03-29T13:49:48;13.20;99.90
12872;DHT22;6504;53.766;9.626;2024-03-29T13:52:18;13.20;99.90
12872;DHT22;6504;53.766;9.626;2024-03-29T13:54:45;13.20;99.90
12872;DHT22;6504;53.766;9.626;2024-03-29T13:57:13;13.20;99.90
12872;DHT22;6504;53.766;9.626;2024-03-29T13:59:41;13.30;99.90
12872;DHT22;6504;53.766;9.626;2024-03-29T14:02:11;13.20;99.90
12872;DHT22;6504;53.766;9.626;2024-03-29T14:04:38;13.30;99.90
12872;DHT22;6504;53.766;9.626;2024-03-29T14:07:05;13.30;99.90
12872;DHT22;6504;53.766;9.626;2024-03-29T14:09:34;13.30;99.90
12872;DHT22;6504;53.766;9.626;2024-03-29T14:12:01;13.40;99.90
12872;DHT22;6504;53.766;9.626;2024-03-29T14:14:29;13.40;99.90
12872;DHT22;6504;53.766;9.626;2024-03-29T14:16:58;13.40;99.90
12872;DHT22;6504;53.766;9.626;2024-03-29T14:19:29;13.30;99.90
12872;DHT22;6504;53.766;9.626;2024-03-29T14:21:56;13.30;99.90
12872;DHT22;6504;53.766;9.626;2024-03-29T14:24:24;13.30;99.90
12872;DHT22;6504;53.766;9.626;2024-03-29T14:26:52;13.30;99.90
12872;DHT22;6504;53.766;9.626;2024-03-29T14:29:19;13.30;99.90
12872;DHT22;6504;53.766;9.626;2024-03-29T14:31:48;13.30;99.90
12872;DHT22;6504;53.766;9.626;2024-03-29T14:34:17;13.30;99.90
12872;DHT22;6504;53.766;9.626;2024-03-29T14:36:45;13.20;99.90
12872;DHT22;6504;53.766;9.626;2024-03-29T14:39:12;13.30;99.90
12872;DHT22;6504;53.766;9.626;2024-03-29T14:41:39;13.20;99.90
12872;DHT22;6504;53.766;9.626;2024-03-29T14:44:07;13.20;99.90
12872;DHT22;6504;53.766;9.626;2024-03-29T14:46:34;13.20;99.90
12872;DHT22;6504;53.766;9.626;2024-03-29T14:49:02;13.20;99.90
12872;DHT22;6504;53.766;9.626;2024-03-29T14:51:34;13.10;99.90
12872;DHT22;6504;53.766;9.626;2024-03-29T14:54:01;13.20;99.90
12872;DHT22;6504;53.766;9.626;2024-03-29T14:56:29;13.10;99.90
12872;DHT22;6504;53.766;9.626;2024-03-29T14:58:57;13.20;99.90
12872;DHT22;6504;53.766;9.626;2024-03-29T15:01:26;13.20;99.90
12872;DHT22;6504;53.766;9.626;2024-03-29T15:03:53;13.20;99.90
12872;DHT22;6504;53.766;9.626;2024-03-29T15:06:20;13.20;99.90
12872;DHT22;6504;53.766;9.626;2024-03-29T15:08:52;13.20;99.90
12872;DHT22;6504;53.766;9.626;2024-03-29T15:11:19;13.30;99.90
12872;DHT22;6504;53.766;9.626;2024-03-29T15:13:47;13.30;99.90
12872;DHT22;6504;53.766;9.626;2024-03-29T15:16:16;13.40;99.90
12872;DHT22;6504;53.766;9.626;2024-03-29T15:18:44;13.40;99.90
12872;DHT22;6504;53.766;9.626;2024-03-29T15:21:11;13.50;99.90
12872;DHT22;6504;53.766;9.626;2024-03-29T15:23:38;13.50;99.90
12872;DHT22;6504;53.766;9.626;2024-03-29T15:26:07;13.60;99.90
12872;DHT22;6504;53.766;9.626;2024-03-29T15:28:34;13.60;99.90
12872;DHT22;6504;53.766;9.626;2024-03-29T15:31:20;13.60;99.90
12872;DHT22;6504;53.766;9.626;2024-03-29T15:33:48;13.60;99.90
12872;DHT22;6504;53.766;9.626;2024-03-29T15:36:15;13.60;99.90
12872;DHT22;6504;53.766;9.626;2024-03-29T15:38:43;13.70;99.90
12872;DHT22;6504;53.766;9.626;2024-03-29T15:41:12;13.70;99.90
12872;DHT22;6504;53.766;9.626;2024-03-29T15:43:40;13.70;99.90
12872;DHT22;6504;53.766;9.626;2024-03-29T15:46:07;13.70;99.90
12872;DHT22;6504;53.766;9.626;2024-03-29T15:48:34;13.70;99.90
12872;DHT22;6504;53.766;9.626;2024-03-29T15:51:01;13.70;99.90
12872;DHT22;6504;53.766;9.626;2024-03-29T15:53:28;13.70;99.90
12872;DHT22;6504;53.766;9.626;2024-03-29T15:55:55;13.70;99.90
12872;DHT22;6504;53.766;9.626;2024-03-29T15:58:25;13.60;99.90
12872;DHT22;6504;53.766;9.626;2024-03-29T16:00:52;13.60;99.90